To NAV CANADA Home Page Login to a new session Search on AWWS site Feedback and Comments Disclaimer Vers la page française équivalente Tips FAQ What's new on the site To the Forecasts and Observations / NOTAM section To "File a Flight Plan" website Publications and other links Update of the User's profile FIC Telephone Numbers My Weather Data Folder Route Weather Data Regional Weather Data Local Weather Data To the Forecasts and Observations / NOTAM section
Request Generated 09/27/2016 at 18:53:51 UTC . Weather information available at that time is displayed.

METAR/TAF

NATASHQUAN/QC    (show WxCam)

METAR CYNA 271800Z AUTO 03011G21KT 9SM SCT050 11/M01 A3000 RMK
SLP162=
METAR CYNA 271700Z AUTO 01013G19KT 9SM BKN046 10/M01 A2999 RMK
SLP157=
SPECI CYNA 271650Z AUTO 36014G21KT 9SM BKN046 10/M00 A2998 RMK WSHFT
AT 1640Z SLP156=
METAR CYNA 271600Z AUTO 05014G21KT 9SM FEW041 10/M01 A2998 RMK
SLP155=

TAF CYNA 271338Z 2714/2802 02015G25KT P6SM SCT030 TEMPO 2714/2716
BKN030
BECMG 2716/2718 02015KT
FM272300 04008KT P6SM SCT030
RMK FCST BASED ON AUTO OBS. NXT FCST BY 272000Z=
Your time UTC time
Weather data provided by Environment Canada and NAV CANADA